createdAt,value
2017-12-15T00:01:16.215Z,2.00
2017-12-15T00:03:45.163Z,1.93
2017-12-15T00:06:13.995Z,1.23
2017-12-15T00:08:42.814Z,1.50
2017-12-15T00:11:11.647Z,3.43
2017-12-15T00:13:40.526Z,1.93
2017-12-15T00:16:09.344Z,2.07
2017-12-15T00:18:38.178Z,1.80
2017-12-15T00:21:07.007Z,2.10
2017-12-15T00:23:35.832Z,1.60
2017-12-15T00:26:04.775Z,2.10
2017-12-15T00:28:33.913Z,2.77
2017-12-15T00:31:02.786Z,2.60
2017-12-15T00:33:31.658Z,3.00
2017-12-15T00:36:00.482Z,3.43
2017-12-15T00:38:29.334Z,2.00
2017-12-15T00:40:58.162Z,1.97
2017-12-15T00:43:26.984Z,3.73
2017-12-15T00:45:55.898Z,2.30
2017-12-15T00:48:24.752Z,5.43
2017-12-15T00:50:53.587Z,1.30
2017-12-15T00:53:22.417Z,11.10
2017-12-15T00:55:51.261Z,5.63
2017-12-15T00:58:20.176Z,1.60
2017-12-15T01:00:49.037Z,2.40
2017-12-15T01:03:17.865Z,2.30
2017-12-15T01:05:46.692Z,1.60
2017-12-15T01:08:15.627Z,2.37
2017-12-15T01:10:44.503Z,2.00
2017-12-15T01:13:13.329Z,2.17
2017-12-15T01:15:42.167Z,2.47
2017-12-15T01:18:10.999Z,2.37
2017-12-15T01:20:39.830Z,2.43
2017-12-15T01:23:08.765Z,2.53
2017-12-15T01:25:37.599Z,3.70
2017-12-15T01:28:06.534Z,3.60
2017-12-15T01:30:35.429Z,2.97
2017-12-15T01:33:04.327Z,3.30
2017-12-15T01:35:33.162Z,3.57
2017-12-15T01:38:02.008Z,2.93
2017-12-15T01:40:30.894Z,3.23
2017-12-15T01:42:59.781Z,2.60
2017-12-15T01:45:28.607Z,2.50
2017-12-15T01:47:57.446Z,2.87
2017-12-15T01:50:26.276Z,3.00
2017-12-15T01:52:55.146Z,3.30
2017-12-15T01:55:24.132Z,4.10
2017-12-15T01:57:53.244Z,3.73
2017-12-15T02:00:22.070Z,3.23
2017-12-15T02:02:50.902Z,3.63
2017-12-15T02:05:19.732Z,3.00
2017-12-15T02:07:48.598Z,3.47
2017-12-15T02:10:17.438Z,4.70
2017-12-15T02:12:46.911Z,5.10
2017-12-15T02:15:15.766Z,3.27
2017-12-15T02:17:44.671Z,3.50
2017-12-15T02:20:13.893Z,3.63
2017-12-15T02:22:42.757Z,4.67
2017-12-15T02:25:11.657Z,5.50
2017-12-15T02:27:40.474Z,3.90
2017-12-15T02:30:09.299Z,3.87
2017-12-15T02:32:38.218Z,5.00
2017-12-15T02:35:07.049Z,6.53
2017-12-15T02:37:35.907Z,6.83
2017-12-15T02:40:04.747Z,7.47
2017-12-15T02:42:33.591Z,5.83
2017-12-15T02:45:03.074Z,7.37
2017-12-15T02:47:31.903Z,5.30
2017-12-15T02:50:00.722Z,5.57
2017-12-15T02:52:29.559Z,6.20
2017-12-15T02:54:58.471Z,6.57
2017-12-15T02:57:27.294Z,7.97
2017-12-15T02:59:56.121Z,7.70
2017-12-15T03:02:25.198Z,7.53
2017-12-15T03:04:54.290Z,6.93
2017-12-15T03:07:23.109Z,9.03
2017-12-15T03:09:51.949Z,9.13
2017-12-15T03:12:20.789Z,10.50
2017-12-15T03:14:49.807Z,8.40
2017-12-15T03:17:18.773Z,8.47
2017-12-15T03:19:47.669Z,7.60
2017-12-15T03:22:16.493Z,7.73
2017-12-15T03:24:45.329Z,6.20
2017-12-15T03:27:14.243Z,7.97
2017-12-15T03:29:43.132Z,6.37
2017-12-15T03:32:11.972Z,8.70
2017-12-15T03:34:40.799Z,6.47
2017-12-15T03:37:09.709Z,4.97
2017-12-15T03:39:38.840Z,5.90
2017-12-15T03:42:07.666Z,3.93
2017-12-15T03:44:36.488Z,1.77
2017-12-15T03:47:05.320Z,2.17
2017-12-15T03:49:34.154Z,1.67
2017-12-15T03:52:03.074Z,1.37
2017-12-15T03:54:31.941Z,1.40
2017-12-15T03:57:00.770Z,1.30
2017-12-15T03:59:29.600Z,1.43
2017-12-15T04:01:58.431Z,2.10
2017-12-15T04:04:27.265Z,0.90
2017-12-15T04:06:56.094Z,1.00
2017-12-15T04:09:24.943Z,1.07
2017-12-15T04:11:53.869Z,0.70
2017-12-15T04:14:22.704Z,0.90
2017-12-15T04:16:51.536Z,0.80
2017-12-15T04:19:20.355Z,0.70
2017-12-15T04:21:49.177Z,0.63
2017-12-15T04:24:18.000Z,0.80
2017-12-15T04:26:46.831Z,0.60
2017-12-15T04:29:15.663Z,0.80
2017-12-15T04:31:44.499Z,0.50
2017-12-15T04:34:13.339Z,0.73
2017-12-15T04:36:42.163Z,0.60
2017-12-15T04:39:10.999Z,0.63
2017-12-15T04:41:39.822Z,0.60
2017-12-15T04:44:08.646Z,0.60
2017-12-15T04:46:37.478Z,0.60
2017-12-15T04:49:06.302Z,1.27
2017-12-15T04:51:35.130Z,0.50
2017-12-15T04:54:03.966Z,0.70
2017-12-15T04:56:32.781Z,0.50
2017-12-15T04:59:01.610Z,0.70
2017-12-15T05:01:30.457Z,0.50
2017-12-15T05:03:59.355Z,0.57
2017-12-15T05:06:28.242Z,0.60
2017-12-15T05:08:57.081Z,0.80
2017-12-15T05:11:25.933Z,0.70
2017-12-15T05:13:54.763Z,0.50
2017-12-15T05:16:23.597Z,0.43
2017-12-15T05:18:52.435Z,0.50
2017-12-15T05:21:21.290Z,0.43
2017-12-15T05:23:50.129Z,0.50
2017-12-15T05:26:18.955Z,0.40
2017-12-15T05:28:47.858Z,0.50
2017-12-15T05:31:16.687Z,0.50
2017-12-15T05:33:45.539Z,0.60
2017-12-15T05:36:14.354Z,0.47
2017-12-15T05:38:43.193Z,0.40
2017-12-15T05:41:12.014Z,0.40
2017-12-15T05:43:40.839Z,0.60
2017-12-15T05:46:09.666Z,0.50
2017-12-15T05:48:38.493Z,0.60
2017-12-15T05:51:07.322Z,0.40
2017-12-15T05:53:36.154Z,1.23
2017-12-15T05:56:05.042Z,1.33
2017-12-15T05:58:33.942Z,0.43
2017-12-15T06:01:02.778Z,1.23
2017-12-15T06:03:31.604Z,0.50
2017-12-15T06:06:00.528Z,0.50
2017-12-15T06:08:29.361Z,0.80
2017-12-15T06:10:58.189Z,0.60
2017-12-15T06:13:27.011Z,1.10
2017-12-15T06:15:55.850Z,1.07
2017-12-15T06:18:24.883Z,1.13
2017-12-15T06:20:53.703Z,0.97
2017-12-15T06:23:22.559Z,1.30
2017-12-15T06:25:51.384Z,1.03
2017-12-15T06:28:20.229Z,0.50
2017-12-15T06:30:49.114Z,1.17
2017-12-15T06:33:17.961Z,0.63
2017-12-15T06:35:46.786Z,0.63
2017-12-15T06:38:15.695Z,2.40
2017-12-15T06:40:44.576Z,0.50
2017-12-15T06:43:13.469Z,1.37
2017-12-15T06:45:42.306Z,0.73
2017-12-15T06:48:11.251Z,0.80
2017-12-15T06:50:40.142Z,0.80
2017-12-15T06:53:08.974Z,1.00
2017-12-15T06:55:37.790Z,0.80
2017-12-15T06:58:06.624Z,0.83
2017-12-15T07:00:35.499Z,0.90
2017-12-15T07:03:04.324Z,1.13
2017-12-15T07:05:33.182Z,1.57
2017-12-15T07:08:02.010Z,1.17
2017-12-15T07:10:30.854Z,1.10
2017-12-15T07:12:59.691Z,1.53
2017-12-15T07:15:28.532Z,1.00
2017-12-15T07:17:57.375Z,1.33
2017-12-15T07:20:26.325Z,1.33
2017-12-15T07:22:55.211Z,1.90
2017-12-15T07:25:23.994Z,1.63
2017-12-15T07:27:52.818Z,1.77
2017-12-15T07:30:21.679Z,5.93
2017-12-15T07:32:50.568Z,1.60
2017-12-15T07:35:19.515Z,2.50
2017-12-15T07:37:48.361Z,1.87
2017-12-15T07:40:17.187Z,2.27
2017-12-15T07:42:46.039Z,1.77
2017-12-15T07:45:14.930Z,1.53
2017-12-15T07:47:43.819Z,1.97
2017-12-15T07:50:12.647Z,1.50
2017-12-15T07:52:41.477Z,1.40
2017-12-15T07:55:10.393Z,1.33
2017-12-15T07:57:39.218Z,1.20
2017-12-15T08:00:08.066Z,1.47
2017-12-15T08:02:36.966Z,1.40
2017-12-15T08:05:05.789Z,1.60
2017-12-15T08:07:34.742Z,1.37
2017-12-15T08:10:03.636Z,1.40
2017-12-15T08:12:32.455Z,1.70
2017-12-15T08:15:01.289Z,1.73
2017-12-15T08:17:30.109Z,1.47
2017-12-15T08:19:59.091Z,1.50
2017-12-15T08:22:27.921Z,1.23
2017-12-15T08:24:56.748Z,1.00
2017-12-15T08:27:25.572Z,1.60
2017-12-15T08:29:54.403Z,1.30
2017-12-15T08:32:23.222Z,1.60
2017-12-15T08:34:52.155Z,2.47
2017-12-15T08:37:20.986Z,1.40
2017-12-15T08:39:49.909Z,3.07
2017-12-15T08:42:18.803Z,2.87
2017-12-15T08:44:47.647Z,1.30
2017-12-15T08:47:16.582Z,2.00
2017-12-15T08:49:45.398Z,4.93
2017-12-15T08:52:14.243Z,1.30
2017-12-15T08:54:43.064Z,2.40
2017-12-15T08:57:11.882Z,3.70
2017-12-15T08:59:40.722Z,1.80
2017-12-15T09:02:09.542Z,3.30
2017-12-15T09:04:38.414Z,1.63
2017-12-15T09:07:07.260Z,1.37
2017-12-15T09:09:36.105Z,2.23
2017-12-15T09:12:04.924Z,1.07
2017-12-15T09:14:33.758Z,1.10
2017-12-15T09:17:02.699Z,2.43
2017-12-15T09:19:31.527Z,1.10
2017-12-15T09:22:00.375Z,1.37
2017-12-15T09:24:29.209Z,1.10
2017-12-15T09:26:58.037Z,1.10
2017-12-15T09:29:26.871Z,1.27
2017-12-15T09:31:55.693Z,1.57
2017-12-15T09:34:24.597Z,0.90
2017-12-15T09:36:53.491Z,0.70
2017-12-15T09:39:22.318Z,1.00
2017-12-15T09:41:51.167Z,0.87
2017-12-15T09:44:19.997Z,1.10
2017-12-15T09:46:48.828Z,0.90
2017-12-15T09:49:17.651Z,1.40
2017-12-15T09:51:46.479Z,0.70
2017-12-15T09:54:15.298Z,1.90
2017-12-15T09:56:44.134Z,1.30
2017-12-15T09:59:12.986Z,0.67
2017-12-15T10:01:41.814Z,0.70
2017-12-15T10:04:10.650Z,0.70
2017-12-15T10:06:39.488Z,0.97
2017-12-15T10:09:08.317Z,1.83
2017-12-15T10:11:37.158Z,1.10
2017-12-15T10:14:05.993Z,1.23
2017-12-15T10:16:34.818Z,1.00
2017-12-15T10:19:03.696Z,1.20
2017-12-15T10:21:32.490Z,2.70
2017-12-15T10:24:01.342Z,1.23
2017-12-15T10:26:30.161Z,0.87
2017-12-15T10:28:59.077Z,1.10
2017-12-15T10:31:27.909Z,1.33
2017-12-15T10:33:56.759Z,1.00
2017-12-15T10:36:25.593Z,1.40
2017-12-15T10:38:54.433Z,0.80
2017-12-15T10:41:23.569Z,2.37
2017-12-15T10:43:52.413Z,1.63
2017-12-15T10:46:21.245Z,1.80
2017-12-15T10:48:50.106Z,1.17
2017-12-15T10:51:18.951Z,1.03
2017-12-15T10:53:47.775Z,1.17
2017-12-15T10:56:16.607Z,1.07
2017-12-15T10:58:45.463Z,1.47
2017-12-15T11:01:14.282Z,1.50
2017-12-15T11:03:43.104Z,1.50
2017-12-15T11:06:12.038Z,1.40
2017-12-15T11:08:40.874Z,1.30
2017-12-15T11:11:09.694Z,1.60
2017-12-15T11:13:38.522Z,0.93
2017-12-15T11:16:07.353Z,1.20
2017-12-15T11:18:36.178Z,1.20
2017-12-15T11:21:05.080Z,1.57
2017-12-15T11:23:33.909Z,3.63
2017-12-15T11:26:02.925Z,3.53
2017-12-15T11:28:32.180Z,3.70
2017-12-15T11:31:01.010Z,1.83
2017-12-15T11:33:29.941Z,1.87
2017-12-15T11:35:58.831Z,1.70
2017-12-15T11:38:27.737Z,1.60
2017-12-15T11:40:56.626Z,2.80
2017-12-15T11:43:25.459Z,1.53
2017-12-15T11:45:55.015Z,2.80
2017-12-15T11:48:23.835Z,2.40
2017-12-15T11:50:52.686Z,1.70
2017-12-15T11:53:21.583Z,1.83
2017-12-15T11:55:50.470Z,1.33
2017-12-15T11:58:19.306Z,1.53
2017-12-15T12:00:48.142Z,0.77
2017-12-15T12:03:17.038Z,0.60
2017-12-15T12:05:46.038Z,1.20
2017-12-15T12:08:14.923Z,1.03
2017-12-15T12:10:43.793Z,1.43
2017-12-15T12:13:13.034Z,1.20
2017-12-15T12:15:41.854Z,0.97
2017-12-15T12:18:10.674Z,0.70
2017-12-15T12:20:39.502Z,1.93
2017-12-15T12:23:08.338Z,2.03
2017-12-15T12:25:37.171Z,1.83
2017-12-15T12:28:06.010Z,2.00
2017-12-15T12:30:34.841Z,2.40
2017-12-15T12:33:03.719Z,2.00
2017-12-15T12:35:32.521Z,2.00
2017-12-15T12:38:01.345Z,2.10
2017-12-15T12:40:30.167Z,1.90
2017-12-15T12:42:58.992Z,2.10
2017-12-15T12:45:27.885Z,1.50
2017-12-15T12:47:56.711Z,2.00
2017-12-15T12:50:25.554Z,1.93
2017-12-15T12:52:54.559Z,2.80
2017-12-15T12:55:23.394Z,2.27
2017-12-15T12:57:52.230Z,2.40
2017-12-15T13:00:21.055Z,2.87
2017-12-15T13:02:49.874Z,2.10
2017-12-15T13:05:18.762Z,2.43
2017-12-15T13:07:47.652Z,3.30
2017-12-15T13:10:16.459Z,3.33
2017-12-15T13:12:45.381Z,2.77
2017-12-15T13:15:14.206Z,2.63
2017-12-15T13:17:43.034Z,3.07
2017-12-15T13:20:11.870Z,5.37
2017-12-15T13:22:40.734Z,4.80
2017-12-15T13:25:09.557Z,4.30
2017-12-15T13:27:38.540Z,3.83
2017-12-15T13:30:07.409Z,2.40
2017-12-15T13:32:36.309Z,2.63
2017-12-15T13:35:05.133Z,2.30
2017-12-15T13:37:33.986Z,2.93
2017-12-15T13:40:03.517Z,2.50
2017-12-15T13:42:32.352Z,2.50
2017-12-15T13:45:01.170Z,2.27
2017-12-15T13:47:29.999Z,63.07
2017-12-15T13:49:58.835Z,5.40
2017-12-15T13:52:27.751Z,5.30
2017-12-15T13:54:56.659Z,3.87
2017-12-15T13:57:25.516Z,5.00
2017-12-15T13:59:54.418Z,3.10
2017-12-15T14:02:23.230Z,2.67
2017-12-15T14:04:52.070Z,3.50
2017-12-15T14:07:20.932Z,3.03
2017-12-15T14:09:49.750Z,3.30
2017-12-15T14:12:18.579Z,2.50
2017-12-15T14:14:47.409Z,2.93
2017-12-15T14:17:17.066Z,6.87
2017-12-15T14:19:45.904Z,3.27
2017-12-15T14:22:14.742Z,3.10
2017-12-15T14:24:43.598Z,3.63
2017-12-15T14:27:12.429Z,3.77
2017-12-15T14:29:41.249Z,6.30
2017-12-15T14:32:10.073Z,6.30
2017-12-15T14:34:38.911Z,5.57
2017-12-15T14:37:07.787Z,9.50
2017-12-15T14:39:36.614Z,9.80
2017-12-15T14:42:05.465Z,7.30
2017-12-15T14:44:34.367Z,7.60
2017-12-15T14:47:03.191Z,5.40
2017-12-15T14:49:32.283Z,5.87
2017-12-15T14:52:01.106Z,8.77
2017-12-15T14:54:29.931Z,9.87
2017-12-15T14:56:58.776Z,13.87
2017-12-15T14:59:27.688Z,24.10
2017-12-15T15:01:56.520Z,21.20
2017-12-15T15:04:25.371Z,18.23
2017-12-15T15:06:54.198Z,18.63
2017-12-15T15:09:23.028Z,10.27
2017-12-15T15:11:52.078Z,9.80
2017-12-15T15:14:20.945Z,11.77
2017-12-15T15:16:49.774Z,15.40
2017-12-15T15:19:18.622Z,9.27
2017-12-15T15:21:47.515Z,6.30
2017-12-15T15:24:16.342Z,9.20
2017-12-15T15:26:45.186Z,7.33
2017-12-15T15:29:14.326Z,9.53
2017-12-15T15:31:43.181Z,6.80
2017-12-15T15:34:12.027Z,8.87
2017-12-15T15:36:40.857Z,9.93
2017-12-15T15:39:09.751Z,7.43
2017-12-15T15:41:38.591Z,9.63
2017-12-15T15:44:07.443Z,9.00
2017-12-15T15:46:36.329Z,7.77
2017-12-15T15:49:05.167Z,11.20
2017-12-15T15:51:34.003Z,7.73
2017-12-15T15:54:02.818Z,8.70
2017-12-15T15:56:31.881Z,10.57
2017-12-15T15:59:00.779Z,7.20
2017-12-15T16:01:29.602Z,16.70
2017-12-15T16:03:58.464Z,15.20
2017-12-15T16:06:27.351Z,11.20
2017-12-15T16:08:56.236Z,16.40
2017-12-15T16:11:25.072Z,12.77
2017-12-15T16:13:53.926Z,13.37
2017-12-15T16:16:23.564Z,10.47
2017-12-15T16:18:52.398Z,9.30
2017-12-15T16:21:21.226Z,10.07
2017-12-15T16:23:50.049Z,9.40
2017-12-15T16:26:18.889Z,11.17
2017-12-15T16:28:47.810Z,9.33
2017-12-15T16:31:16.721Z,10.00
2017-12-15T16:33:45.564Z,9.70
2017-12-15T16:36:14.389Z,11.70
2017-12-15T16:38:43.243Z,11.60
2017-12-15T16:41:12.147Z,15.50
2017-12-15T16:43:41.026Z,16.70
2017-12-15T16:46:09.992Z,18.83
2017-12-15T16:48:38.943Z,17.33
2017-12-15T16:51:07.811Z,14.90
2017-12-15T16:53:36.659Z,17.40
2017-12-15T16:56:05.595Z,12.80
2017-12-15T16:58:34.478Z,21.73
2017-12-15T17:01:03.316Z,25.00
2017-12-15T17:03:32.254Z,15.20
2017-12-15T17:06:01.141Z,15.93
2017-12-15T17:08:29.974Z,13.37
2017-12-15T17:10:58.858Z,14.90
2017-12-15T17:13:27.690Z,12.87
2017-12-15T17:15:56.526Z,11.03
2017-12-15T17:18:25.382Z,11.67
2017-12-15T17:20:54.290Z,15.47
2017-12-15T17:23:23.178Z,20.20
2017-12-15T17:25:52.025Z,15.37
2017-12-15T17:28:20.846Z,16.03
2017-12-15T17:30:49.679Z,19.13
2017-12-15T17:33:18.517Z,16.97
2017-12-15T17:35:47.426Z,12.77
2017-12-15T17:38:16.268Z,16.30
2017-12-15T17:40:45.128Z,12.07
2017-12-15T17:43:13.968Z,12.00
2017-12-15T17:45:42.801Z,10.90
2017-12-15T17:48:11.653Z,12.93
2017-12-15T17:50:40.493Z,13.50
2017-12-15T17:53:09.345Z,15.47
2017-12-15T17:55:38.194Z,15.83
2017-12-15T17:58:07.024Z,12.80
2017-12-15T18:00:36.199Z,7.80
2017-12-15T18:03:05.062Z,10.73
2017-12-15T18:05:33.890Z,10.70
2017-12-15T18:08:03.566Z,8.90
2017-12-15T18:10:32.406Z,12.40
2017-12-15T18:13:01.240Z,15.97
2017-12-15T18:15:30.098Z,8.60
2017-12-15T18:17:58.933Z,4.63
2017-12-15T18:20:27.762Z,4.80
2017-12-15T18:22:56.676Z,4.40
2017-12-15T18:25:25.509Z,4.93
2017-12-15T18:27:54.343Z,4.00
2017-12-15T18:30:23.420Z,5.03
2017-12-15T18:32:52.280Z,9.03
2017-12-15T18:35:21.120Z,7.93
2017-12-15T18:37:50.068Z,8.87
2017-12-15T18:40:18.898Z,8.47
2017-12-15T18:42:47.723Z,8.60
2017-12-15T18:45:16.624Z,7.33
2017-12-15T18:47:45.463Z,3.67
2017-12-15T18:50:14.383Z,3.73
2017-12-15T18:52:43.225Z,4.10
2017-12-15T18:55:12.067Z,3.20
2017-12-15T18:57:40.899Z,3.80
2017-12-15T19:00:10.663Z,10.40
2017-12-15T19:02:39.534Z,4.20
2017-12-15T19:05:08.367Z,2.80
2017-12-15T19:07:37.191Z,3.20
2017-12-15T19:10:06.048Z,3.20
2017-12-15T19:12:34.874Z,7.00
2017-12-15T19:15:03.719Z,5.67
2017-12-15T19:17:32.606Z,5.70
2017-12-15T19:20:01.436Z,7.33
2017-12-15T19:22:30.274Z,3.73
2017-12-15T19:24:59.106Z,2.40
2017-12-15T19:27:27.938Z,3.77
2017-12-15T19:29:56.830Z,4.37
2017-12-15T19:32:25.672Z,3.90
2017-12-15T19:34:54.518Z,1.67
2017-12-15T19:37:23.352Z,2.13
2017-12-15T19:39:52.187Z,6.60
2017-12-15T19:42:21.014Z,4.00
2017-12-15T19:44:49.868Z,4.07
2017-12-15T19:47:19.517Z,4.00
2017-12-15T19:49:48.347Z,7.70
2017-12-15T19:52:17.169Z,3.47
2017-12-15T19:54:46.046Z,2.90
2017-12-15T19:57:14.879Z,3.30
2017-12-15T19:59:43.711Z,3.57
2017-12-15T20:02:12.631Z,4.63
2017-12-15T20:04:41.469Z,3.17
2017-12-15T20:07:10.299Z,3.30
2017-12-15T20:09:39.147Z,3.87
2017-12-15T20:12:08.007Z,10.00
2017-12-15T20:14:37.034Z,5.40
2017-12-15T20:17:05.959Z,5.70
2017-12-15T20:19:36.332Z,9.43
2017-12-15T20:22:05.193Z,8.30
2017-12-15T20:24:34.174Z,11.40
2017-12-15T20:27:03.074Z,8.00
2017-12-15T20:29:31.906Z,10.30
2017-12-15T20:32:00.758Z,19.10
2017-12-15T20:34:29.596Z,23.23
2017-12-15T20:36:58.440Z,18.33
2017-12-15T20:39:27.322Z,12.30
2017-12-15T20:41:56.220Z,13.40
2017-12-15T20:44:25.113Z,12.57
2017-12-15T20:46:53.932Z,11.67
2017-12-15T20:49:22.785Z,15.67
2017-12-15T20:51:51.693Z,13.10
2017-12-15T20:54:20.582Z,13.70
2017-12-15T20:56:49.458Z,8.97
2017-12-15T20:59:18.355Z,9.60
2017-12-15T21:01:47.201Z,8.03
2017-12-15T21:04:16.133Z,9.20
2017-12-15T21:06:44.947Z,7.90
2017-12-15T21:09:15.560Z,8.80
2017-12-15T21:11:44.395Z,6.17
2017-12-15T21:14:13.223Z,10.87
2017-12-15T21:16:42.067Z,10.80
2017-12-15T21:19:10.890Z,12.23
2017-12-15T21:21:39.716Z,11.33
2017-12-15T21:24:08.589Z,12.93
2017-12-15T21:26:37.465Z,12.73
2017-12-15T21:29:06.314Z,16.33
2017-12-15T21:31:35.176Z,8.40
2017-12-15T21:34:04.050Z,17.13
2017-12-15T21:36:32.877Z,16.77
2017-12-15T21:39:01.722Z,39.93
2017-12-15T21:41:30.558Z,25.63
2017-12-15T21:43:59.396Z,18.47
2017-12-15T21:46:28.296Z,21.33
2017-12-15T21:48:57.239Z,14.00
2017-12-15T21:51:26.082Z,13.80
2017-12-15T21:53:54.969Z,12.87
2017-12-15T21:56:23.881Z,17.33
2017-12-15T21:58:53.342Z,20.03
2017-12-15T22:01:22.191Z,20.23
2017-12-15T22:03:51.017Z,19.77
2017-12-15T22:06:19.852Z,17.10
2017-12-15T22:08:48.697Z,13.40
2017-12-15T22:11:17.619Z,17.67
2017-12-15T22:13:46.441Z,20.93
2017-12-15T22:16:15.282Z,17.77
2017-12-15T22:18:44.132Z,33.93
2017-12-15T22:21:12.994Z,36.70
2017-12-15T22:23:41.974Z,48.63
2017-12-15T22:26:10.930Z,56.47
2017-12-15T22:28:39.766Z,23.40
2017-12-15T22:31:08.650Z,15.00
2017-12-15T22:33:37.485Z,16.10
2017-12-15T22:36:06.317Z,17.10
2017-12-15T22:38:35.220Z,10.90
2017-12-15T22:41:04.108Z,15.43
2017-12-15T22:43:32.946Z,13.60
2017-12-15T22:46:01.798Z,10.87
2017-12-15T22:48:30.682Z,7.80
2017-12-15T22:50:59.509Z,10.37
2017-12-15T22:53:28.409Z,10.60
2017-12-15T22:55:57.239Z,8.47
2017-12-15T22:58:26.061Z,10.33
2017-12-15T23:00:54.905Z,12.33
2017-12-15T23:03:23.816Z,12.63
2017-12-15T23:05:53.111Z,14.00
2017-12-15T23:08:21.959Z,13.07
2017-12-15T23:10:50.795Z,10.97
2017-12-15T23:13:19.625Z,10.10
2017-12-15T23:15:48.472Z,12.83
2017-12-15T23:18:17.303Z,13.07
2017-12-15T23:20:46.128Z,12.57
2017-12-15T23:23:14.971Z,13.90
2017-12-15T23:25:43.808Z,11.83
2017-12-15T23:28:12.996Z,14.40
2017-12-15T23:30:41.840Z,13.10
2017-12-15T23:33:10.843Z,16.40
2017-12-15T23:35:39.678Z,13.50
2017-12-15T23:38:08.522Z,12.40
2017-12-15T23:40:37.344Z,13.80
2017-12-15T23:43:06.165Z,9.87
2017-12-15T23:45:35.006Z,10.83
2017-12-15T23:48:03.838Z,14.23
2017-12-15T23:50:32.670Z,13.20
2017-12-15T23:53:01.536Z,12.77
2017-12-15T23:55:36.389Z,14.73
2017-12-15T23:58:05.259Z,14.33
